createdAt,value
2019-03-29T00:00:03.141Z,12.00
2019-03-29T00:01:03.323Z,12.06
2019-03-29T00:02:03.495Z,11.99
2019-03-29T00:03:03.673Z,12.07
2019-03-29T00:04:03.862Z,12.04
2019-03-29T00:05:04.040Z,12.06
2019-03-29T00:06:04.225Z,12.06
2019-03-29T00:07:04.390Z,12.04
2019-03-29T00:08:04.573Z,12.03
2019-03-29T00:09:04.740Z,12.10
2019-03-29T00:10:04.916Z,12.06
2019-03-29T00:11:05.093Z,12.07
2019-03-29T00:12:05.266Z,12.10
2019-03-29T00:13:05.445Z,12.18
2019-03-29T00:14:05.628Z,12.18
2019-03-29T00:15:05.797Z,12.10
2019-03-29T00:16:05.970Z,12.15
2019-03-29T00:17:06.171Z,12.12
2019-03-29T00:18:06.320Z,12.10
2019-03-29T00:19:06.492Z,12.04
2019-03-29T00:20:06.668Z,12.13
2019-03-29T00:21:06.838Z,12.12
2019-03-29T00:22:07.019Z,12.10
2019-03-29T00:23:07.186Z,12.06
2019-03-29T00:24:07.460Z,12.09
2019-03-29T00:25:07.540Z,12.15
2019-03-29T00:26:07.720Z,12.10
2019-03-29T00:27:07.900Z,12.09
2019-03-29T00:28:08.080Z,11.99
2019-03-29T00:29:08.253Z,12.04
2019-03-29T00:30:08.414Z,12.06
2019-03-29T00:31:08.587Z,12.04
2019-03-29T00:32:08.767Z,12.17
2019-03-29T00:33:08.942Z,12.12
2019-03-29T00:34:09.116Z,12.10
2019-03-29T00:35:09.290Z,12.10
2019-03-29T00:36:09.477Z,12.07
2019-03-29T00:37:09.651Z,12.15
2019-03-29T00:38:09.833Z,12.04
2019-03-29T00:39:10.004Z,12.07
2019-03-29T00:40:10.174Z,12.13
2019-03-29T00:41:10.346Z,12.07
2019-03-29T00:42:10.539Z,12.04
2019-03-29T00:43:10.739Z,12.15
2019-03-29T00:44:10.876Z,12.04
2019-03-29T00:45:11.050Z,12.00
2019-03-29T00:46:11.366Z,12.04
2019-03-29T00:47:11.399Z,11.91
2019-03-29T00:48:11.571Z,11.95
2019-03-29T00:49:11.747Z,11.86
2019-03-29T00:50:11.921Z,11.91
2019-03-29T00:51:12.100Z,11.91
2019-03-29T00:52:12.274Z,11.88
2019-03-29T00:53:12.452Z,11.78
2019-03-29T00:54:12.625Z,11.68
2019-03-29T00:55:12.798Z,11.70
2019-03-29T00:56:13.123Z,11.50
2019-03-29T00:57:13.162Z,11.57
2019-03-29T00:58:13.320Z,11.52
2019-03-29T00:59:14.297Z,11.65
2019-03-29T01:00:13.684Z,11.63
2019-03-29T01:01:13.846Z,11.70
2019-03-29T01:02:14.018Z,11.73
2019-03-29T01:03:14.196Z,11.78
2019-03-29T01:04:14.373Z,11.84
2019-03-29T01:05:14.549Z,11.87
2019-03-29T01:07:14.899Z,11.88
2019-03-29T01:08:15.066Z,11.88
2019-03-29T01:09:15.240Z,11.90
2019-03-29T01:10:15.421Z,11.91
2019-03-29T01:11:15.599Z,11.81
2019-03-29T01:13:15.933Z,11.91
2019-03-29T01:14:16.829Z,11.80
2019-03-29T01:15:16.282Z,11.78
2019-03-29T01:16:16.457Z,11.88
2019-03-29T01:17:16.633Z,11.81
2019-03-29T01:18:16.807Z,11.72
2019-03-29T01:19:16.998Z,11.75
2019-03-29T01:20:17.160Z,11.72
2019-03-29T01:21:17.331Z,11.65
2019-03-29T01:22:17.511Z,11.75
2019-03-29T01:23:17.682Z,11.75
2019-03-29T01:24:17.858Z,11.70
2019-03-29T01:25:18.029Z,11.77
2019-03-29T01:26:18.206Z,11.69
2019-03-29T01:27:19.113Z,11.77
2019-03-29T01:28:18.562Z,11.83
2019-03-29T01:29:18.728Z,11.90
2019-03-29T01:30:18.913Z,11.84
2019-03-29T01:31:19.083Z,11.90
2019-03-29T01:32:19.261Z,11.91
2019-03-29T01:33:19.432Z,11.83
2019-03-29T01:34:20.332Z,11.78
2019-03-29T01:35:19.772Z,11.81
2019-03-29T01:36:19.941Z,11.87
2019-03-29T01:37:20.142Z,11.86
2019-03-29T01:38:22.202Z,11.91
2019-03-29T01:39:20.457Z,11.87
2019-03-29T01:40:20.632Z,11.88
2019-03-29T01:41:20.810Z,11.91
2019-03-29T01:42:20.990Z,11.95
2019-03-29T01:43:21.165Z,11.88
2019-03-29T01:44:21.341Z,11.90
2019-03-29T01:45:21.515Z,11.95
2019-03-29T01:46:21.692Z,11.94
2019-03-29T01:47:21.868Z,12.00
2019-03-29T01:48:22.415Z,11.91
2019-03-29T01:49:22.216Z,11.88
2019-03-29T01:50:22.393Z,11.94
2019-03-29T01:51:22.575Z,11.94
2019-03-29T01:52:22.750Z,11.94
2019-03-29T01:53:22.930Z,11.77
2019-03-29T01:54:23.101Z,11.88
2019-03-29T01:55:23.328Z,11.95
2019-03-29T01:56:23.454Z,11.94
2019-03-29T01:57:23.634Z,11.95
2019-03-29T01:58:25.014Z,11.97
2019-03-29T01:59:23.982Z,11.88
2019-03-29T02:00:24.159Z,11.75
2019-03-29T02:01:24.331Z,11.81
2019-03-29T02:02:24.509Z,11.90
2019-03-29T02:03:24.686Z,11.80
2019-03-29T02:04:24.867Z,11.83
2019-03-29T02:05:25.034Z,11.88
2019-03-29T02:06:25.210Z,11.81
2019-03-29T02:07:25.389Z,11.84
2019-03-29T02:08:35.548Z,11.83
2019-03-29T02:09:25.829Z,11.78
2019-03-29T02:10:25.905Z,11.87
2019-03-29T02:11:26.089Z,11.86
2019-03-29T02:12:26.258Z,11.90
2019-03-29T02:13:26.435Z,11.86
2019-03-29T02:14:26.612Z,11.84
2019-03-29T02:15:26.787Z,11.87
2019-03-29T02:16:26.971Z,11.80
2019-03-29T02:17:27.135Z,11.69
2019-03-29T02:20:07.656Z,11.66
2019-03-29T02:21:07.830Z,11.62
2019-03-29T02:22:09.018Z,11.66
2019-03-29T02:23:08.196Z,11.66
2019-03-29T02:24:08.353Z,11.51
2019-03-29T02:25:08.531Z,11.63
2019-03-29T02:26:08.946Z,11.55
2019-03-29T02:27:08.879Z,11.75
2019-03-29T02:28:09.054Z,11.62
2019-03-29T02:29:09.268Z,11.54
2019-03-29T02:30:09.407Z,11.51
2019-03-29T02:31:09.586Z,11.44
2019-03-29T02:32:09.754Z,11.51
2019-03-29T02:33:09.941Z,11.59
2019-03-29T02:34:10.119Z,11.50
2019-03-29T02:35:11.474Z,11.41
2019-03-29T02:36:10.452Z,11.45
2019-03-29T02:37:10.655Z,11.41
2019-03-29T02:38:10.807Z,11.32
2019-03-29T02:39:10.980Z,11.35
2019-03-29T02:40:11.151Z,11.27
2019-03-29T02:41:12.237Z,11.25
2019-03-29T02:42:11.528Z,11.23
2019-03-29T02:43:11.704Z,11.33
2019-03-29T02:44:11.882Z,11.32
2019-03-29T02:45:12.067Z,11.47
2019-03-29T02:46:12.232Z,11.37
2019-03-29T02:47:12.441Z,11.40
2019-03-29T02:48:12.575Z,11.37
2019-03-29T02:49:13.241Z,11.40
2019-03-29T02:50:12.924Z,11.45
2019-03-29T02:51:13.102Z,11.40
2019-03-29T02:52:13.275Z,11.32
2019-03-29T02:53:13.554Z,11.40
2019-03-29T02:54:13.628Z,11.30
2019-03-29T02:55:13.821Z,11.27
2019-03-29T02:56:13.975Z,11.32
2019-03-29T02:57:14.149Z,11.36
2019-03-29T02:58:14.344Z,11.43
2019-03-29T02:59:14.505Z,11.35
2019-03-29T03:00:14.684Z,11.35
2019-03-29T03:01:14.851Z,11.40
2019-03-29T03:02:15.028Z,11.48
2019-03-29T03:03:15.200Z,11.57
2019-03-29T03:04:15.375Z,11.50
2019-03-29T03:05:15.551Z,11.51
2019-03-29T03:06:15.734Z,11.45
2019-03-29T03:07:15.930Z,11.57
2019-03-29T03:08:16.077Z,11.57
2019-03-29T03:09:16.288Z,11.51
2019-03-29T03:10:16.432Z,11.47
2019-03-29T03:11:16.602Z,11.50
2019-03-29T03:12:16.779Z,11.45
2019-03-29T03:13:16.958Z,11.48
2019-03-29T03:14:17.243Z,11.40
2019-03-29T03:15:17.301Z,11.45
2019-03-29T03:16:17.477Z,11.36
2019-03-29T03:17:17.656Z,11.52
2019-03-29T03:18:17.832Z,11.44
2019-03-29T03:19:18.005Z,11.45
2019-03-29T03:20:18.197Z,11.44
2019-03-29T03:21:18.356Z,11.44
2019-03-29T03:22:18.528Z,11.44
2019-03-29T03:23:18.705Z,11.44
2019-03-29T03:24:18.886Z,11.41
2019-03-29T03:25:19.056Z,11.40
2019-03-29T03:26:19.228Z,11.44
2019-03-29T03:27:19.405Z,11.45
2019-03-29T03:28:19.578Z,11.37
2019-03-29T03:29:19.753Z,11.26
2019-03-29T03:30:19.937Z,11.17
2019-03-29T03:31:20.103Z,11.22
2019-03-29T03:32:20.292Z,11.23
2019-03-29T03:33:20.481Z,11.25
2019-03-29T03:34:20.633Z,11.40
2019-03-29T03:35:20.806Z,11.33
2019-03-29T03:36:20.977Z,11.36
2019-03-29T03:37:21.155Z,11.36
2019-03-29T03:38:21.327Z,11.29
2019-03-29T03:39:31.447Z,11.29
2019-03-29T03:40:21.682Z,11.29
2019-03-29T03:41:21.850Z,11.37
2019-03-29T03:42:22.031Z,11.35
2019-03-29T03:43:22.200Z,11.35
2019-03-29T03:44:22.375Z,11.30
2019-03-29T03:45:22.557Z,11.40
2019-03-29T03:46:22.736Z,11.35
2019-03-29T03:47:22.912Z,11.36
2019-03-29T03:48:23.077Z,11.23
2019-03-29T03:49:23.262Z,11.18
2019-03-29T03:50:23.428Z,11.18
2019-03-29T03:51:23.605Z,11.08
2019-03-29T03:52:23.779Z,11.10
2019-03-29T03:53:23.961Z,11.08
2019-03-29T03:54:24.153Z,11.19
2019-03-29T03:55:24.307Z,11.19
2019-03-29T03:56:24.479Z,11.17
2019-03-29T03:57:24.653Z,11.18
2019-03-29T03:58:24.828Z,11.26
2019-03-29T03:59:25.008Z,11.23
2019-03-29T04:00:25.184Z,11.18
2019-03-29T04:01:25.366Z,11.29
2019-03-29T04:02:25.547Z,11.30
2019-03-29T04:03:25.729Z,11.30
2019-03-29T04:04:25.906Z,11.30
2019-03-29T04:05:26.070Z,11.30
2019-03-29T04:06:26.238Z,11.35
2019-03-29T04:07:26.414Z,11.40
2019-03-29T04:08:26.592Z,11.35
2019-03-29T04:09:26.768Z,11.30
2019-03-29T04:10:26.939Z,11.37
2019-03-29T04:11:27.112Z,11.41
2019-03-29T04:12:27.290Z,11.44
2019-03-29T04:13:27.487Z,11.51
2019-03-29T04:14:27.645Z,11.45
2019-03-29T04:15:27.823Z,11.48
2019-03-29T04:16:27.990Z,11.48
2019-03-29T04:17:28.165Z,11.40
2019-03-29T04:18:28.338Z,11.40
2019-03-29T04:19:28.511Z,11.35
2019-03-29T04:20:29.272Z,11.37
2019-03-29T04:21:28.811Z,11.43
2019-03-29T04:22:29.012Z,11.40
2019-03-29T04:23:29.157Z,11.33
2019-03-29T04:24:29.333Z,11.35
2019-03-29T04:25:29.509Z,11.37
2019-03-29T04:26:29.686Z,11.32
2019-03-29T04:27:29.869Z,11.23
2019-03-29T04:28:30.032Z,11.18
2019-03-29T04:29:30.217Z,11.29
2019-03-29T04:30:30.381Z,11.29
2019-03-29T04:31:30.559Z,11.27
2019-03-29T04:32:30.840Z,11.17
2019-03-29T04:33:30.904Z,11.12
2019-03-29T04:34:31.099Z,11.11
2019-03-29T04:35:31.257Z,11.07
2019-03-29T04:36:31.434Z,10.96
2019-03-29T04:37:31.614Z,10.92
2019-03-29T04:38:31.783Z,10.94
2019-03-29T04:39:31.960Z,10.96
2019-03-29T04:40:32.137Z,10.90
2019-03-29T04:41:32.313Z,10.89
2019-03-29T04:42:32.486Z,10.81
2019-03-29T04:43:32.661Z,10.78
2019-03-29T04:44:32.832Z,10.78
2019-03-29T04:45:33.006Z,10.78
2019-03-29T04:46:33.183Z,10.75
2019-03-29T04:47:33.376Z,10.84
2019-03-29T04:48:33.599Z,10.79
2019-03-29T04:49:33.708Z,10.69
2019-03-29T04:50:33.879Z,10.81
2019-03-29T04:51:34.055Z,10.71
2019-03-29T04:52:34.232Z,10.79
2019-03-29T04:53:34.405Z,10.84
2019-03-29T04:54:34.589Z,10.84
2019-03-29T04:55:34.755Z,10.78
2019-03-29T04:56:34.945Z,10.76
2019-03-29T04:57:35.100Z,10.71
2019-03-29T04:58:35.279Z,10.74
2019-03-29T04:59:35.459Z,10.74
2019-03-29T05:00:35.633Z,10.69
2019-03-29T05:01:35.804Z,10.76
2019-03-29T05:02:35.992Z,10.76
2019-03-29T05:03:36.155Z,10.71
2019-03-29T05:04:36.325Z,10.61
2019-03-29T05:05:36.509Z,10.48
2019-03-29T05:06:36.679Z,10.60
2019-03-29T05:07:37.310Z,10.54
2019-03-29T05:08:37.030Z,10.59
2019-03-29T05:09:37.203Z,10.56
2019-03-29T05:10:37.377Z,10.46
2019-03-29T05:11:37.556Z,10.46
2019-03-29T05:12:37.729Z,10.54
2019-03-29T05:13:37.905Z,10.57
2019-03-29T05:14:38.077Z,10.61
2019-03-29T05:15:38.252Z,10.60
2019-03-29T05:16:38.431Z,10.53
2019-03-29T05:17:38.601Z,10.54
2019-03-29T05:18:38.776Z,10.49
2019-03-29T05:19:38.952Z,10.34
2019-03-29T05:20:39.122Z,10.46
2019-03-29T05:21:39.300Z,10.49
2019-03-29T05:22:39.475Z,10.53
2019-03-29T05:23:39.648Z,10.48
2019-03-29T05:24:39.825Z,10.41
2019-03-29T05:25:40.001Z,10.56
2019-03-29T05:26:40.174Z,10.48
2019-03-29T05:27:40.351Z,10.40
2019-03-29T05:28:40.524Z,10.49
2019-03-29T05:29:40.698Z,10.49
2019-03-29T05:30:40.874Z,10.41
2019-03-29T05:31:41.048Z,10.57
2019-03-29T05:32:41.223Z,10.60
2019-03-29T05:33:41.398Z,10.54
2019-03-29T05:34:41.577Z,10.41
2019-03-29T05:35:41.748Z,10.63
2019-03-29T05:36:41.933Z,10.57
2019-03-29T05:37:42.100Z,10.51
2019-03-29T05:38:42.269Z,10.56
2019-03-29T05:39:42.445Z,10.57
2019-03-29T05:40:42.624Z,10.63
2019-03-29T05:41:42.791Z,10.57
2019-03-29T05:42:42.967Z,10.59
2019-03-29T05:43:43.146Z,10.68
2019-03-29T05:44:43.317Z,10.67
2019-03-29T05:45:43.490Z,10.64
2019-03-29T05:46:43.667Z,10.68
2019-03-29T05:47:43.847Z,10.75
2019-03-29T05:48:44.019Z,10.72
2019-03-29T05:49:44.791Z,10.71
2019-03-29T05:50:44.331Z,10.74
2019-03-29T05:51:44.507Z,10.75
2019-03-29T05:52:44.685Z,10.74
2019-03-29T05:53:44.856Z,10.76
2019-03-29T05:54:45.033Z,10.82
2019-03-29T05:55:48.212Z,10.78
2019-03-29T05:56:45.379Z,10.90
2019-03-29T05:57:45.555Z,10.72
2019-03-29T05:58:45.732Z,10.90
2019-03-29T05:59:45.903Z,10.86
2019-03-29T06:00:46.079Z,10.93
2019-03-29T06:01:46.261Z,11.04
2019-03-29T06:02:46.433Z,11.19
2019-03-29T06:03:46.609Z,11.43
2019-03-29T06:04:46.784Z,11.57
2019-03-29T06:05:46.954Z,11.80
2019-03-29T06:06:47.124Z,11.95
2019-03-29T06:07:47.321Z,12.24
2019-03-29T06:08:47.475Z,12.62
2019-03-29T06:09:47.655Z,13.19
2019-03-29T06:10:49.574Z,13.44
2019-03-29T06:11:48.008Z,13.78
2019-03-29T06:12:48.178Z,14.33
2019-03-29T06:13:48.351Z,14.72
2019-03-29T06:14:48.531Z,15.02
2019-03-29T06:15:48.707Z,15.11
2019-03-29T06:16:48.884Z,15.11
2019-03-29T06:17:49.464Z,15.25
2019-03-29T06:18:49.245Z,15.14
2019-03-29T06:19:49.420Z,14.43
2019-03-29T06:20:49.590Z,14.22
2019-03-29T06:21:49.770Z,14.03
2019-03-29T06:22:49.949Z,13.97
2019-03-29T06:23:50.129Z,13.95
2019-03-29T06:24:50.311Z,13.81
2019-03-29T06:25:50.487Z,13.74
2019-03-29T06:26:50.671Z,13.60
2019-03-29T06:27:50.848Z,13.49
2019-03-29T06:28:51.020Z,13.31
2019-03-29T06:29:51.198Z,13.01
2019-03-29T06:30:51.378Z,12.73
2019-03-29T06:31:51.555Z,12.73
2019-03-29T06:32:51.732Z,12.78
2019-03-29T06:33:51.912Z,12.61
2019-03-29T06:34:52.095Z,12.62
2019-03-29T06:35:52.264Z,12.62
2019-03-29T06:36:53.295Z,12.73
2019-03-29T06:37:52.597Z,12.75
2019-03-29T06:39:52.963Z,12.60
2019-03-29T06:41:02.667Z,12.42
2019-03-29T06:41:53.315Z,12.22
2019-03-29T06:42:53.505Z,12.03
2019-03-29T06:43:54.302Z,11.77
2019-03-29T06:44:53.864Z,11.66
2019-03-29T06:45:54.032Z,11.80
2019-03-29T06:46:54.209Z,11.88
2019-03-29T06:47:54.386Z,12.07
2019-03-29T06:48:54.566Z,12.25
2019-03-29T06:49:54.750Z,12.13
2019-03-29T06:50:54.918Z,12.20
2019-03-29T06:51:55.101Z,12.22
2019-03-29T06:52:55.273Z,12.35
2019-03-29T06:53:55.459Z,12.25
2019-03-29T06:54:55.632Z,12.29
2019-03-29T06:55:59.101Z,12.53
2019-03-29T06:56:55.980Z,12.62
2019-03-29T06:57:56.165Z,12.62
2019-03-29T06:58:56.337Z,12.64
2019-03-29T06:59:56.513Z,12.73
2019-03-29T07:00:56.689Z,12.91
2019-03-29T07:01:56.866Z,13.08
2019-03-29T07:02:57.049Z,13.15
2019-03-29T07:03:57.221Z,13.20
2019-03-29T07:04:57.396Z,13.15
2019-03-29T07:05:57.573Z,13.22
2019-03-29T07:06:57.796Z,13.22
2019-03-29T07:07:57.935Z,13.20
2019-03-29T07:08:58.111Z,13.33
2019-03-29T07:09:58.288Z,13.52
2019-03-29T07:10:58.467Z,13.74
2019-03-29T07:11:58.642Z,13.92
2019-03-29T07:12:58.825Z,14.10
2019-03-29T07:13:59.000Z,14.17
2019-03-29T07:14:59.171Z,14.50
2019-03-29T07:15:59.350Z,14.78
2019-03-29T07:16:59.528Z,15.11
2019-03-29T07:17:59.703Z,15.43
2019-03-29T07:18:59.885Z,15.62
2019-03-29T07:20:00.151Z,15.76
2019-03-29T07:21:00.250Z,16.12
2019-03-29T07:22:00.421Z,16.64
2019-03-29T07:23:00.601Z,16.99
2019-03-29T07:24:00.779Z,17.24
2019-03-29T07:25:00.961Z,17.70
2019-03-29T07:26:01.144Z,17.71
2019-03-29T07:27:01.391Z,18.37
2019-03-29T07:28:01.524Z,18.60
2019-03-29T07:29:01.752Z,18.78
2019-03-29T07:30:01.849Z,18.89
2019-03-29T07:31:02.035Z,19.22
2019-03-29T07:32:02.214Z,18.95
2019-03-29T07:33:02.386Z,19.47
2019-03-29T07:34:02.575Z,19.69
2019-03-29T07:35:02.748Z,19.81
2019-03-29T07:36:02.951Z,19.63
2019-03-29T07:37:05.809Z,19.70
2019-03-29T07:38:03.293Z,19.95
2019-03-29T07:39:03.478Z,20.40
2019-03-29T07:40:03.666Z,20.58
2019-03-29T07:41:03.844Z,20.78
2019-03-29T07:42:04.031Z,20.56
2019-03-29T07:43:04.213Z,20.67
2019-03-29T07:44:04.400Z,20.77
2019-03-29T07:45:04.577Z,20.93
2019-03-29T07:46:04.777Z,21.20
2019-03-29T07:47:04.938Z,20.90
2019-03-29T07:48:05.123Z,20.77
2019-03-29T07:49:05.310Z,20.62
2019-03-29T07:50:05.509Z,20.99
2019-03-29T07:51:05.679Z,21.09
2019-03-29T07:52:05.861Z,21.27
2019-03-29T07:53:06.050Z,21.18
2019-03-29T07:54:06.229Z,21.15
2019-03-29T07:55:06.416Z,21.27
2019-03-29T07:56:06.598Z,21.32
2019-03-29T07:57:06.784Z,21.21
2019-03-29T07:58:06.973Z,21.29
2019-03-29T07:59:07.165Z,20.95
2019-03-29T08:00:07.342Z,21.48
2019-03-29T08:01:08.369Z,21.88
2019-03-29T08:02:07.743Z,22.14
2019-03-29T08:03:07.904Z,22.22
2019-03-29T08:04:08.088Z,22.14
2019-03-29T08:05:08.277Z,21.88
2019-03-29T08:06:08.463Z,21.18
2019-03-29T08:07:08.650Z,20.99
2019-03-29T08:08:22.697Z,21.29
2019-03-29T08:09:21.774Z,20.92
2019-03-29T08:10:09.262Z,21.50
2019-03-29T08:11:09.450Z,21.64
2019-03-29T08:12:09.647Z,21.85
2019-03-29T08:13:09.826Z,21.61
2019-03-29T08:14:10.026Z,20.75
2019-03-29T08:15:10.221Z,20.00
2019-03-29T08:16:10.380Z,19.91
2019-03-29T08:17:10.566Z,19.02
2019-03-29T08:18:10.752Z,18.68
2019-03-29T08:19:10.941Z,18.77
2019-03-29T08:20:37.588Z,19.37
2019-03-29T08:21:11.309Z,19.22
2019-03-29T08:22:11.497Z,18.22
2019-03-29T08:23:11.684Z,16.91
2019-03-29T08:24:12.014Z,16.54
2019-03-29T08:25:12.054Z,16.46
2019-03-29T08:26:12.234Z,17.05
2019-03-29T08:27:12.422Z,16.57
2019-03-29T08:28:12.604Z,16.69
2019-03-29T08:29:12.791Z,16.32
2019-03-29T08:30:12.984Z,15.35
2019-03-29T08:31:13.161Z,15.36
2019-03-29T08:32:13.334Z,15.22
2019-03-29T08:33:13.530Z,15.29
2019-03-29T08:34:13.702Z,15.33
2019-03-29T08:35:13.887Z,15.33
2019-03-29T08:36:14.070Z,15.42
2019-03-29T08:37:14.249Z,15.46
2019-03-29T08:38:14.450Z,15.47
2019-03-29T08:39:27.241Z,14.92
2019-03-29T08:40:14.799Z,15.06
2019-03-29T08:41:15.841Z,15.07
2019-03-29T08:42:18.417Z,15.07
2019-03-29T08:43:15.324Z,14.97
2019-03-29T08:44:15.509Z,15.17
2019-03-29T08:45:15.753Z,15.04
2019-03-29T08:46:15.871Z,15.03
2019-03-29T08:47:16.048Z,15.15
2019-03-29T08:48:16.255Z,15.29
2019-03-29T08:49:16.933Z,15.27
2019-03-29T08:50:16.617Z,15.27
2019-03-29T08:51:16.755Z,15.27
2019-03-29T08:52:16.932Z,15.62
2019-03-29T08:53:17.112Z,15.59
2019-03-29T08:54:17.300Z,15.19
2019-03-29T08:55:17.885Z,15.39
2019-03-29T08:56:17.647Z,15.02
2019-03-29T08:57:18.346Z,15.28
2019-03-29T08:58:18.024Z,15.14
2019-03-29T08:59:18.210Z,15.21
2019-03-29T09:00:18.400Z,15.49
2019-03-29T09:01:19.585Z,15.67
2019-03-29T09:02:18.750Z,15.91
2019-03-29T09:03:18.938Z,16.08
2019-03-29T09:04:21.684Z,16.33
2019-03-29T09:05:19.290Z,16.47
2019-03-29T09:06:19.502Z,16.50
2019-03-29T09:07:19.657Z,16.64
2019-03-29T09:08:19.953Z,16.51
2019-03-29T09:09:19.988Z,16.47
2019-03-29T09:10:20.167Z,16.54
2019-03-29T09:11:20.363Z,16.51
2019-03-29T09:12:21.351Z,16.51
2019-03-29T09:13:20.658Z,16.68
2019-03-29T09:14:20.845Z,17.16
2019-03-29T09:15:21.018Z,17.92
2019-03-29T09:16:21.199Z,18.23
2019-03-29T09:17:21.376Z,17.87
2019-03-29T09:18:21.557Z,17.39
2019-03-29T09:19:21.740Z,17.02
2019-03-29T09:20:21.948Z,17.26
2019-03-29T09:21:22.095Z,17.56
2019-03-29T09:22:22.281Z,18.08
2019-03-29T09:23:22.469Z,18.31
2019-03-29T09:24:22.747Z,18.59
2019-03-29T09:25:22.822Z,19.29
2019-03-29T09:26:23.002Z,18.73
2019-03-29T09:27:23.188Z,18.47
2019-03-29T09:28:24.361Z,18.41
2019-03-29T09:29:23.763Z,18.60
2019-03-29T09:30:24.181Z,17.95
2019-03-29T09:31:24.316Z,17.83
2019-03-29T09:32:24.048Z,17.60
2019-03-29T09:33:24.226Z,17.63
2019-03-29T09:34:24.442Z,17.71
2019-03-29T09:35:24.587Z,17.95
2019-03-29T09:36:24.768Z,17.59
2019-03-29T09:37:24.947Z,17.60
2019-03-29T09:38:25.130Z,17.49
2019-03-29T09:39:25.309Z,17.33
2019-03-29T09:40:25.493Z,17.27
2019-03-29T09:41:25.669Z,17.38
2019-03-29T09:42:29.413Z,17.59
2019-03-29T09:43:26.696Z,17.54
2019-03-29T09:44:26.362Z,17.56
2019-03-29T09:45:27.460Z,17.44
2019-03-29T09:46:26.559Z,17.19
2019-03-29T09:47:27.383Z,17.04
2019-03-29T09:48:28.057Z,17.16
2019-03-29T09:49:27.216Z,17.27
2019-03-29T09:50:27.438Z,17.82
2019-03-29T09:51:27.593Z,17.60
2019-03-29T09:52:27.702Z,17.72
2019-03-29T09:53:27.881Z,17.86
2019-03-29T09:54:28.142Z,17.76
2019-03-29T09:55:28.245Z,17.80
2019-03-29T09:56:38.865Z,17.74
2019-03-29T09:57:37.366Z,17.70
2019-03-29T09:58:28.737Z,17.79
2019-03-29T09:59:28.872Z,17.68
2019-03-29T10:00:29.045Z,17.63
2019-03-29T10:01:29.513Z,17.20
2019-03-29T10:02:29.513Z,17.16
2019-03-29T10:03:29.655Z,17.19
2019-03-29T10:04:29.905Z,17.29
2019-03-29T10:05:31.455Z,17.22
2019-03-29T10:06:30.218Z,17.33
2019-03-29T10:07:30.410Z,17.11
2019-03-29T10:08:30.572Z,17.38
2019-03-29T10:09:30.793Z,17.30
2019-03-29T10:10:34.200Z,17.29
2019-03-29T10:11:31.172Z,17.42
2019-03-29T10:12:42.692Z,18.18
2019-03-29T10:13:31.425Z,17.87
2019-03-29T10:14:33.471Z,17.79
2019-03-29T10:15:31.944Z,17.48
2019-03-29T10:16:31.956Z,17.36
2019-03-29T10:17:32.134Z,17.30
2019-03-29T10:18:32.315Z,17.34
2019-03-29T10:19:32.483Z,17.52
2019-03-29T10:20:32.982Z,17.26
2019-03-29T10:21:34.300Z,16.86
2019-03-29T10:22:33.178Z,17.06
2019-03-29T10:23:33.399Z,17.05
2019-03-29T10:24:33.430Z,17.05
2019-03-29T10:25:34.316Z,17.04
2019-03-29T10:26:34.884Z,16.28
2019-03-29T10:27:34.155Z,15.97
2019-03-29T10:28:34.249Z,16.09
2019-03-29T10:29:34.431Z,16.51
2019-03-29T10:30:34.611Z,17.20
2019-03-29T10:31:34.881Z,17.87
2019-03-29T10:32:34.952Z,18.44
2019-03-29T10:33:35.136Z,19.18
2019-03-29T10:34:37.519Z,19.89
2019-03-29T10:35:50.328Z,20.55
2019-03-29T10:36:35.748Z,19.95
2019-03-29T10:37:35.949Z,20.52
2019-03-29T10:38:36.100Z,20.65
2019-03-29T10:39:36.285Z,20.84
2019-03-29T10:40:36.470Z,21.06
2019-03-29T10:41:38.031Z,21.02
2019-03-29T10:42:39.777Z,21.60
2019-03-29T10:43:37.009Z,21.98
2019-03-29T10:44:37.194Z,22.11
2019-03-29T10:45:40.353Z,22.23
2019-03-29T10:46:37.561Z,21.03
2019-03-29T10:47:43.772Z,21.03
2019-03-29T10:48:37.923Z,21.30
2019-03-29T10:49:38.101Z,21.58
2019-03-29T10:50:38.900Z,22.17
2019-03-29T10:51:38.444Z,21.50
2019-03-29T10:52:38.636Z,21.24
2019-03-29T10:53:38.822Z,21.02
2019-03-29T10:54:38.994Z,21.03
2019-03-29T10:55:39.176Z,21.12
2019-03-29T10:56:39.362Z,20.75
2019-03-29T10:57:39.553Z,20.92
2019-03-29T10:58:39.731Z,21.21
2019-03-29T10:59:39.910Z,21.29
2019-03-29T11:00:40.153Z,20.65
2019-03-29T11:01:40.415Z,20.36
2019-03-29T11:02:40.609Z,19.88
2019-03-29T11:03:41.403Z,20.06
2019-03-29T11:04:41.041Z,20.50
2019-03-29T11:05:41.190Z,20.25
2019-03-29T11:06:41.341Z,20.63
2019-03-29T11:07:41.527Z,20.99
2019-03-29T11:08:43.554Z,20.22
2019-03-29T11:09:42.005Z,20.16
2019-03-29T11:10:42.258Z,19.96
2019-03-29T11:11:42.235Z,20.10
2019-03-29T11:12:42.430Z,20.16
2019-03-29T11:13:42.602Z,20.59
2019-03-29T11:14:42.792Z,19.96
2019-03-29T11:15:42.973Z,20.00
2019-03-29T11:16:43.162Z,20.11
2019-03-29T11:17:43.343Z,20.21
2019-03-29T11:18:45.749Z,20.25
2019-03-29T11:19:43.709Z,20.36
2019-03-29T11:20:43.904Z,20.11
2019-03-29T11:21:44.079Z,19.71
2019-03-29T11:22:44.264Z,19.48
2019-03-29T11:23:44.445Z,19.22
2019-03-29T11:24:44.632Z,19.18
2019-03-29T11:25:48.268Z,19.33
2019-03-29T11:26:44.998Z,19.40
2019-03-29T11:27:45.179Z,19.41
2019-03-29T11:28:45.361Z,19.24
2019-03-29T11:29:45.540Z,18.28
2019-03-29T11:30:45.729Z,17.89
2019-03-29T11:31:45.919Z,18.16
2019-03-29T11:32:46.095Z,18.40
2019-03-29T11:33:46.280Z,17.86
2019-03-29T11:34:46.463Z,17.60
2019-03-29T11:35:46.646Z,17.86
2019-03-29T11:36:46.840Z,17.74
2019-03-29T11:37:47.035Z,18.13
2019-03-29T11:38:47.188Z,18.19
2019-03-29T11:39:47.364Z,18.04
2019-03-29T11:40:47.562Z,18.45
2019-03-29T11:41:47.736Z,18.60
2019-03-29T11:42:47.928Z,18.74
2019-03-29T11:43:48.102Z,18.62
2019-03-29T11:44:48.540Z,18.58
2019-03-29T11:45:48.589Z,18.66
2019-03-29T11:46:48.633Z,18.71
2019-03-29T11:47:49.419Z,18.62
2019-03-29T11:48:49.745Z,18.35
2019-03-29T11:49:52.865Z,18.50
2019-03-29T11:50:49.421Z,18.41
2019-03-29T11:51:49.693Z,18.50
2019-03-29T11:52:49.770Z,18.38
2019-03-29T11:53:51.444Z,18.47
2019-03-29T11:54:50.127Z,18.50
2019-03-29T11:55:50.300Z,18.65
2019-03-29T11:56:50.489Z,18.23
2019-03-29T11:57:50.666Z,17.98
2019-03-29T11:58:52.150Z,17.85
2019-03-29T11:59:51.022Z,17.71
2019-03-29T12:00:51.199Z,17.83
2019-03-29T12:01:51.382Z,18.05
2019-03-29T12:02:51.572Z,18.10
2019-03-29T12:03:51.743Z,18.41
2019-03-29T12:04:51.923Z,17.71
2019-03-29T12:05:52.104Z,17.39
2019-03-29T12:06:52.284Z,16.79
2019-03-29T12:07:52.474Z,16.74
2019-03-29T12:08:52.643Z,17.04
2019-03-29T12:09:52.849Z,17.05
2019-03-29T12:10:53.011Z,16.89
2019-03-29T12:11:53.193Z,17.12
2019-03-29T12:12:53.376Z,16.86
2019-03-29T12:13:53.556Z,17.15
2019-03-29T12:14:53.740Z,17.36
2019-03-29T12:15:53.907Z,17.68
2019-03-29T12:16:54.081Z,17.87
2019-03-29T12:17:54.265Z,18.04
2019-03-29T12:18:54.446Z,17.83
2019-03-29T12:19:54.627Z,17.97
2019-03-29T12:20:54.822Z,17.95
2019-03-29T12:21:54.986Z,18.13
2019-03-29T12:22:55.168Z,18.20
2019-03-29T12:23:55.357Z,18.33
2019-03-29T12:24:55.536Z,18.45
2019-03-29T12:25:55.709Z,18.66
2019-03-29T12:26:55.902Z,18.73
2019-03-29T12:27:56.075Z,18.55
2019-03-29T12:28:56.247Z,18.59
2019-03-29T12:29:56.428Z,18.04
2019-03-29T12:30:56.607Z,17.60
2019-03-29T12:31:56.794Z,17.78
2019-03-29T12:32:56.967Z,17.90
2019-03-29T12:33:57.151Z,18.03
2019-03-29T12:34:57.330Z,18.16
2019-03-29T12:35:57.506Z,18.08
2019-03-29T12:36:57.684Z,18.28
2019-03-29T12:37:57.964Z,18.26
2019-03-29T12:38:58.167Z,18.33
2019-03-29T12:39:58.995Z,18.41
2019-03-29T12:40:58.958Z,18.44
2019-03-29T12:41:58.634Z,18.31
2019-03-29T12:42:59.440Z,18.34
2019-03-29T12:43:58.996Z,18.03
2019-03-29T12:44:59.169Z,18.16
2019-03-29T12:45:59.934Z,18.31
2019-03-29T12:46:59.488Z,18.47
2019-03-29T12:47:59.667Z,18.75
2019-03-29T12:48:59.848Z,18.60
2019-03-29T12:50:00.026Z,18.65
2019-03-29T12:51:00.208Z,18.52
2019-03-29T12:52:00.399Z,18.47
2019-03-29T12:53:00.579Z,18.60
2019-03-29T12:54:00.771Z,18.20
2019-03-29T12:55:00.937Z,18.23
2019-03-29T12:56:01.111Z,18.23
2019-03-29T12:57:01.292Z,17.90
2019-03-29T12:58:02.434Z,17.95
2019-03-29T12:59:01.618Z,18.03